createdAt,value
2023-01-25T00:00:54.774Z,1.66
2023-01-25T00:03:22.863Z,1.68
2023-01-25T00:05:59.131Z,1.72
2023-01-25T00:08:27.265Z,1.65
2023-01-25T00:10:58.647Z,1.71
2023-01-25T00:13:28.166Z,1.64
2023-01-25T00:16:01.501Z,1.61
2023-01-25T00:18:29.674Z,1.73
2023-01-25T00:20:57.694Z,1.67
2023-01-25T00:23:25.801Z,1.67
2023-01-25T00:25:58.655Z,1.68
2023-01-25T00:28:28.243Z,1.63
2023-01-25T00:30:59.944Z,1.70
2023-01-25T00:33:41.601Z,1.55
2023-01-25T00:36:29.436Z,1.65
2023-01-25T00:38:58.531Z,1.59
2023-01-25T00:41:26.556Z,1.53
2023-01-25T00:43:56.135Z,1.59
2023-01-25T00:46:24.974Z,1.58
2023-01-25T00:48:54.723Z,1.62
2023-01-25T00:51:23.293Z,1.69
2023-01-25T00:53:51.633Z,1.62
2023-01-25T00:56:19.920Z,1.67
2023-01-25T00:58:47.924Z,1.68
2023-01-25T01:01:20.241Z,1.63
2023-01-25T01:03:48.330Z,1.41
2023-01-25T01:06:16.381Z,1.59
2023-01-25T01:08:44.593Z,1.52
2023-01-25T01:11:13.425Z,1.53
2023-01-25T01:13:41.589Z,1.64
2023-01-25T01:16:12.191Z,1.60
2023-01-25T01:18:42.882Z,1.44
2023-01-25T01:21:11.335Z,1.52
2023-01-25T01:23:39.513Z,1.62
2023-01-25T01:26:08.532Z,1.56
2023-01-25T01:28:39.686Z,1.50
2023-01-25T01:31:09.315Z,1.55
2023-01-25T01:33:41.458Z,1.56
2023-01-25T01:36:10.671Z,1.62
2023-01-25T01:38:41.691Z,1.54
2023-01-25T01:41:10.264Z,1.52
2023-01-25T01:43:38.954Z,1.60
2023-01-25T01:46:13.803Z,1.53
2023-01-25T01:48:46.336Z,1.54
2023-01-25T01:51:19.544Z,1.54
2023-01-25T01:53:51.101Z,1.54
2023-01-25T01:56:22.072Z,1.52
2023-01-25T01:58:52.511Z,1.54
2023-01-25T02:01:21.119Z,1.50
2023-01-25T02:03:51.713Z,1.49
2023-01-25T02:06:24.921Z,1.52
2023-01-25T02:08:53.541Z,1.44
2023-01-25T02:11:22.710Z,1.48
2023-01-25T02:13:52.005Z,1.44
2023-01-25T02:16:25.131Z,1.46
2023-01-25T02:18:55.197Z,1.40
2023-01-25T02:21:24.688Z,1.35
2023-01-25T02:23:55.743Z,1.38
2023-01-25T02:26:26.004Z,1.51
2023-01-25T02:28:58.568Z,1.53
2023-01-25T02:31:27.000Z,1.45
2023-01-25T02:33:55.410Z,1.41
2023-01-25T02:36:25.885Z,1.45
2023-01-25T02:38:55.740Z,1.40
2023-01-25T02:41:31.400Z,1.25
2023-01-25T02:43:59.884Z,1.25
2023-01-25T02:46:31.796Z,1.28
2023-01-25T02:49:03.537Z,1.36
2023-01-25T02:51:33.240Z,1.18
2023-01-25T02:54:01.637Z,1.25
2023-01-25T02:56:31.447Z,1.25
2023-01-25T02:58:59.743Z,1.24
2023-01-25T03:01:27.828Z,1.24
2023-01-25T03:03:55.992Z,1.33
2023-01-25T03:06:24.062Z,1.28
2023-01-25T03:08:52.229Z,1.24
2023-01-25T03:11:21.163Z,1.25
2023-01-25T03:13:50.897Z,1.36
2023-01-25T03:16:19.821Z,1.28
2023-01-25T03:18:47.987Z,1.31
2023-01-25T03:21:17.963Z,1.29
2023-01-25T03:23:48.922Z,1.23
2023-01-25T03:26:24.092Z,1.28
2023-01-25T03:29:09.149Z,1.24
2023-01-25T03:31:40.412Z,1.35
2023-01-25T03:34:08.625Z,1.26
2023-01-25T03:36:40.426Z,1.28
2023-01-25T03:39:08.512Z,1.31
2023-01-25T03:41:41.223Z,1.48
2023-01-25T03:44:13.559Z,1.32
2023-01-25T03:46:43.441Z,1.25
2023-01-25T03:49:12.676Z,1.25
2023-01-25T03:51:41.417Z,1.11
2023-01-25T03:54:10.216Z,1.30
2023-01-25T03:56:38.811Z,1.33
2023-01-25T03:59:12.973Z,1.26
2023-01-25T04:01:41.355Z,1.38
2023-01-25T04:04:09.387Z,1.42
2023-01-25T04:06:41.123Z,1.39
2023-01-25T04:09:09.229Z,1.33
2023-01-25T04:11:43.365Z,1.37
2023-01-25T04:14:14.701Z,1.35
2023-01-25T04:16:49.321Z,1.43
2023-01-25T04:19:29.277Z,1.36
2023-01-25T04:22:00.864Z,1.39
2023-01-25T04:24:34.330Z,1.32
2023-01-25T04:27:02.451Z,1.35
2023-01-25T04:29:41.399Z,1.34
2023-01-25T04:32:14.585Z,1.42
2023-01-25T04:34:42.811Z,1.26
2023-01-25T04:37:15.479Z,1.43
2023-01-25T04:39:54.560Z,1.46
2023-01-25T04:42:22.668Z,1.47
2023-01-25T04:44:56.377Z,1.38
2023-01-25T04:47:25.239Z,1.31
2023-01-25T04:49:53.520Z,1.43
2023-01-25T04:52:25.273Z,1.37
2023-01-25T04:54:53.379Z,1.41
2023-01-25T04:57:21.461Z,1.47
2023-01-25T04:59:53.410Z,1.50
2023-01-25T05:02:25.152Z,1.32
2023-01-25T05:04:54.104Z,1.44
2023-01-25T05:07:22.785Z,1.38
2023-01-25T05:09:51.017Z,1.34
2023-01-25T05:12:20.894Z,1.48
2023-01-25T05:15:04.133Z,1.36
2023-01-25T05:17:33.675Z,1.40
2023-01-25T05:20:01.681Z,1.32
2023-01-25T05:22:29.985Z,1.39
2023-01-25T05:24:59.146Z,1.23
2023-01-25T05:27:26.244Z,1.34
2023-01-25T05:29:54.228Z,1.34
2023-01-25T05:32:27.088Z,1.25
2023-01-25T05:34:56.477Z,1.29
2023-01-25T05:37:25.807Z,1.22
2023-01-25T05:40:01.020Z,1.35
2023-01-25T05:42:29.747Z,1.32
2023-01-25T05:44:57.761Z,1.25
2023-01-25T05:47:26.285Z,1.37
2023-01-25T05:49:57.691Z,1.28
2023-01-25T05:52:37.340Z,1.18
2023-01-25T05:55:05.705Z,1.19
2023-01-25T05:57:33.931Z,1.37
2023-01-25T06:00:03.192Z,1.38
2023-01-25T06:02:41.394Z,1.21
2023-01-25T06:05:13.992Z,1.22
2023-01-25T06:07:42.022Z,1.32
2023-01-25T06:10:10.718Z,1.38
2023-01-25T06:12:39.697Z,1.39
2023-01-25T06:15:09.160Z,1.34
2023-01-25T06:17:37.512Z,1.30
2023-01-25T06:20:21.147Z,1.28
2023-01-25T06:23:07.102Z,1.27
2023-01-25T06:25:35.243Z,1.37
2023-01-25T06:28:03.211Z,1.31
2023-01-25T06:30:31.178Z,1.26
2023-01-25T06:32:59.230Z,1.26
2023-01-25T06:35:28.872Z,1.22
2023-01-25T06:37:57.075Z,1.32
2023-01-25T06:40:25.383Z,1.26
2023-01-25T06:42:53.451Z,1.25
2023-01-25T06:45:23.941Z,1.32
2023-01-25T06:47:52.166Z,1.24
2023-01-25T06:50:20.247Z,1.21
2023-01-25T06:52:54.766Z,1.20
2023-01-25T06:55:23.148Z,1.30
2023-01-25T06:57:51.258Z,1.23
2023-01-25T07:00:19.627Z,1.34
2023-01-25T07:02:47.865Z,1.25
2023-01-25T07:05:16.025Z,1.32
2023-01-25T07:07:45.789Z,1.42
2023-01-25T07:10:18.092Z,1.46
2023-01-25T07:12:48.386Z,1.32
2023-01-25T07:15:16.415Z,1.40
2023-01-25T07:17:44.485Z,1.39
2023-01-25T07:20:12.876Z,1.40
2023-01-25T07:22:43.283Z,1.34
2023-01-25T07:25:11.636Z,1.34
2023-01-25T07:27:41.263Z,1.39
2023-01-25T07:30:09.930Z,1.39
2023-01-25T07:32:37.959Z,1.43
2023-01-25T07:35:06.300Z,1.38
2023-01-25T07:37:34.794Z,1.36
2023-01-25T07:40:02.916Z,1.45
2023-01-25T07:42:30.884Z,1.47
2023-01-25T07:45:14.482Z,1.62
2023-01-25T07:47:42.502Z,1.58
2023-01-25T07:50:11.647Z,1.49
2023-01-25T07:52:39.890Z,1.52
2023-01-25T07:55:08.391Z,1.64
2023-01-25T07:57:36.628Z,1.50
2023-01-25T08:00:25.129Z,1.46
2023-01-25T08:02:54.562Z,1.50
2023-01-25T08:05:22.594Z,1.58
2023-01-25T08:07:50.636Z,1.49
2023-01-25T08:10:19.168Z,1.60
2023-01-25T08:12:47.603Z,1.44
2023-01-25T08:15:15.649Z,1.25
2023-01-25T08:17:43.620Z,1.47
2023-01-25T08:20:13.970Z,1.54
2023-01-25T08:22:42.048Z,1.43
2023-01-25T08:25:10.657Z,1.67
2023-01-25T08:27:39.331Z,1.47
2023-01-25T08:30:08.332Z,1.42
2023-01-25T08:32:39.037Z,1.45
2023-01-25T08:35:08.493Z,1.53
2023-01-25T08:37:39.765Z,1.61
2023-01-25T08:40:08.740Z,1.63
2023-01-25T08:42:39.629Z,1.69
2023-01-25T08:45:08.359Z,1.49
2023-01-25T08:47:36.765Z,1.58
2023-01-25T08:50:08.211Z,1.58
2023-01-25T08:52:38.162Z,1.47
2023-01-25T08:55:07.000Z,1.43
2023-01-25T08:57:35.054Z,1.55
2023-01-25T09:00:08.541Z,1.56
2023-01-25T09:02:37.551Z,1.73
2023-01-25T09:05:07.834Z,1.66
2023-01-25T09:07:38.851Z,1.79
2023-01-25T09:10:09.047Z,1.54
2023-01-25T09:12:37.574Z,1.46
2023-01-25T09:15:06.153Z,1.44
2023-01-25T09:17:34.244Z,1.52
2023-01-25T09:20:02.315Z,1.57
2023-01-25T09:22:31.797Z,1.52
2023-01-25T09:24:59.865Z,1.47
2023-01-25T09:27:29.301Z,1.41
2023-01-25T09:30:02.160Z,1.48
2023-01-25T09:32:31.381Z,1.39
2023-01-25T09:34:59.581Z,1.35
2023-01-25T09:37:27.621Z,1.42
2023-01-25T09:39:55.894Z,1.48
2023-01-25T09:42:32.634Z,1.58
2023-01-25T09:45:10.648Z,1.33
2023-01-25T09:47:42.726Z,1.56
2023-01-25T09:50:25.049Z,1.54
2023-01-25T09:53:04.730Z,1.69
2023-01-25T09:55:33.702Z,1.66
2023-01-25T09:58:04.158Z,1.75
2023-01-25T10:00:36.066Z,1.52
2023-01-25T10:03:06.675Z,1.52
2023-01-25T10:05:39.812Z,1.61
2023-01-25T10:08:12.280Z,1.56
2023-01-25T10:10:43.832Z,1.57
2023-01-25T10:13:12.768Z,1.64
2023-01-25T10:15:45.233Z,1.85
2023-01-25T10:18:20.329Z,1.87
2023-01-25T10:20:51.030Z,1.98
2023-01-25T10:23:30.489Z,1.62
2023-01-25T10:26:05.946Z,1.64
2023-01-25T10:28:39.483Z,1.95
2023-01-25T10:31:18.750Z,1.77
2023-01-25T10:33:48.302Z,1.82
2023-01-25T10:36:17.690Z,1.77
2023-01-25T10:38:49.642Z,1.79
2023-01-25T10:41:21.375Z,1.52
2023-01-25T10:44:09.704Z,1.75
2023-01-25T10:46:41.082Z,1.62
2023-01-25T10:49:19.050Z,1.62
2023-01-25T10:51:50.181Z,1.70
2023-01-25T10:54:18.270Z,1.62
2023-01-25T10:56:47.002Z,1.71
2023-01-25T10:59:17.302Z,1.73
2023-01-25T11:01:47.790Z,1.68
2023-01-25T11:04:30.191Z,2.02
2023-01-25T11:06:58.641Z,1.80
2023-01-25T11:09:34.450Z,1.72
2023-01-25T11:12:03.507Z,1.66
2023-01-25T11:14:32.849Z,1.94
2023-01-25T11:17:04.388Z,1.72
2023-01-25T11:19:34.375Z,2.00
2023-01-25T11:22:04.094Z,2.02
2023-01-25T11:24:36.705Z,1.85
2023-01-25T11:27:19.939Z,1.68
2023-01-25T11:30:10.100Z,1.66
2023-01-25T11:32:41.248Z,1.60
2023-01-25T11:35:16.501Z,1.62
2023-01-25T11:38:03.860Z,1.59
2023-01-25T11:40:35.250Z,1.67
2023-01-25T11:43:07.962Z,1.58
2023-01-25T11:45:43.015Z,1.56
2023-01-25T11:48:21.686Z,1.54
2023-01-25T11:50:53.928Z,1.51
2023-01-25T11:53:28.058Z,1.51
2023-01-25T11:55:59.646Z,1.49
2023-01-25T11:58:38.427Z,1.58
2023-01-25T12:01:11.823Z,1.51
2023-01-25T12:04:01.786Z,1.46
2023-01-25T12:06:35.186Z,1.46
2023-01-25T12:09:15.933Z,1.52
2023-01-25T12:12:03.381Z,1.57
2023-01-25T12:14:39.270Z,1.65
2023-01-25T12:17:16.833Z,1.65
2023-01-25T12:19:55.905Z,1.76
2023-01-25T12:22:41.318Z,1.66
2023-01-25T12:25:20.376Z,1.40
2023-01-25T12:27:55.794Z,1.55
2023-01-25T12:30:27.254Z,1.64
2023-01-25T12:33:13.962Z,1.51
2023-01-25T12:35:46.128Z,1.66
2023-01-25T12:38:20.751Z,1.62
2023-01-25T12:44:07.904Z,1.67
2023-01-25T12:46:39.165Z,1.51
2023-01-25T12:49:09.270Z,1.52
2023-01-25T12:51:40.889Z,1.64
2023-01-25T12:54:14.718Z,1.41
2023-01-25T12:56:46.589Z,1.39
2023-01-25T12:59:18.519Z,1.72
2023-01-25T13:01:50.194Z,1.58
2023-01-25T13:04:24.277Z,1.58
2023-01-25T13:06:56.015Z,1.51
2023-01-25T13:09:29.192Z,1.64
2023-01-25T13:11:57.361Z,1.54
2023-01-25T13:14:36.173Z,1.66
2023-01-25T13:17:21.114Z,1.56
2023-01-25T13:19:51.946Z,1.36
2023-01-25T13:22:38.627Z,1.58
2023-01-25T13:25:11.074Z,2.00
2023-01-25T13:27:39.340Z,1.79
2023-01-25T13:30:22.659Z,1.90
2023-01-25T13:32:59.725Z,2.38
2023-01-25T13:35:32.304Z,1.96
2023-01-25T13:38:01.827Z,1.94
2023-01-25T13:40:33.493Z,1.61
2023-01-25T13:43:03.641Z,1.41
2023-01-25T13:45:33.288Z,2.11
2023-01-25T13:48:04.234Z,2.01
2023-01-25T13:50:34.677Z,1.61
2023-01-25T13:53:04.145Z,1.86
2023-01-25T13:55:42.439Z,2.22
2023-01-25T13:58:11.368Z,1.97
2023-01-25T14:00:39.494Z,1.57
2023-01-25T14:03:07.857Z,1.68
2023-01-25T14:05:35.990Z,1.42
2023-01-25T14:08:04.074Z,1.34
2023-01-25T14:10:32.793Z,1.41
2023-01-25T14:13:04.113Z,1.30
2023-01-25T14:15:33.100Z,1.77
2023-01-25T14:18:12.703Z,2.24
2023-01-25T14:20:41.300Z,1.83
2023-01-25T14:23:21.360Z,1.50
2023-01-25T14:25:49.728Z,1.69
2023-01-25T14:28:19.517Z,1.60
2023-01-25T14:30:51.673Z,1.49
2023-01-25T14:33:21.468Z,1.63
2023-01-25T14:35:55.439Z,1.72
2023-01-25T14:38:26.400Z,1.67
2023-01-25T14:40:56.571Z,1.68
2023-01-25T14:43:28.608Z,1.65
2023-01-25T14:45:57.270Z,1.35
2023-01-25T14:48:40.813Z,1.42
2023-01-25T14:51:21.381Z,1.54
2023-01-25T14:53:51.865Z,1.67
2023-01-25T14:56:34.049Z,1.98
2023-01-25T14:59:04.767Z,1.47
2023-01-25T15:01:36.994Z,1.73
2023-01-25T15:04:05.711Z,2.12
2023-01-25T15:06:33.776Z,2.02
2023-01-25T15:09:01.883Z,2.15
2023-01-25T15:11:38.901Z,1.62
2023-01-25T15:14:17.718Z,1.54
2023-01-25T15:16:46.321Z,1.72
2023-01-25T15:19:30.830Z,1.77
2023-01-25T15:22:00.018Z,1.47
2023-01-25T15:24:28.325Z,1.54
2023-01-25T15:26:56.467Z,2.16
2023-01-25T15:29:27.020Z,1.66
2023-01-25T15:31:56.129Z,2.00
2023-01-25T15:34:29.149Z,1.61
2023-01-25T15:36:57.328Z,1.48
2023-01-25T15:39:25.424Z,1.50
2023-01-25T15:41:53.605Z,1.67
2023-01-25T15:44:21.611Z,1.61
2023-01-25T15:46:52.033Z,1.77
2023-01-25T15:49:25.861Z,1.86
2023-01-25T15:51:54.211Z,1.69
2023-01-25T15:54:22.492Z,1.81
2023-01-25T15:56:51.905Z,1.65
2023-01-25T15:59:20.230Z,1.43
2023-01-25T16:01:48.319Z,1.92
2023-01-25T16:04:17.681Z,1.99
2023-01-25T16:06:47.355Z,1.88
2023-01-25T16:09:19.933Z,2.00
2023-01-25T16:11:48.429Z,1.82
2023-01-25T16:14:16.807Z,1.95
2023-01-25T16:16:45.644Z,1.55
2023-01-25T16:19:14.574Z,1.77
2023-01-25T16:21:44.361Z,1.63
2023-01-25T16:24:12.651Z,2.10
2023-01-25T16:26:45.143Z,1.46
2023-01-25T16:29:13.775Z,1.35
2023-01-25T16:31:42.100Z,1.45
2023-01-25T16:34:10.264Z,1.58
2023-01-25T16:36:39.628Z,1.47
2023-01-25T16:39:10.660Z,1.42
2023-01-25T16:41:38.837Z,1.64
2023-01-25T16:44:06.884Z,1.90
2023-01-25T16:46:34.974Z,1.43
2023-01-25T16:49:04.743Z,1.27
2023-01-25T16:51:33.380Z,1.37
2023-01-25T16:54:01.846Z,1.59
2023-01-25T16:56:32.700Z,1.77
2023-01-25T16:59:02.168Z,2.21
2023-01-25T17:01:30.335Z,1.94
2023-01-25T17:03:59.014Z,1.88
2023-01-25T17:06:28.325Z,1.64
2023-01-25T17:08:57.909Z,1.33
2023-01-25T17:11:26.206Z,1.43
2023-01-25T17:13:56.492Z,1.31
2023-01-25T17:16:25.799Z,1.44
2023-01-25T17:18:54.702Z,1.29
2023-01-25T17:21:25.485Z,1.51
2023-01-25T17:23:53.709Z,1.34
2023-01-25T17:26:22.478Z,1.53
2023-01-25T17:28:50.779Z,1.50
2023-01-25T17:31:22.134Z,1.24
2023-01-25T17:33:50.787Z,1.41
2023-01-25T17:36:19.775Z,1.55
2023-01-25T17:38:48.181Z,1.42
2023-01-25T17:41:17.164Z,1.49
2023-01-25T17:43:45.245Z,1.73
2023-01-25T17:46:14.048Z,1.45
2023-01-25T17:48:44.782Z,1.49
2023-01-25T17:51:12.845Z,1.55
2023-01-25T17:53:40.959Z,1.72
2023-01-25T17:56:09.626Z,1.97
2023-01-25T17:58:38.334Z,1.49
2023-01-25T18:01:13.885Z,1.38
2023-01-25T18:03:44.091Z,1.58
2023-01-25T18:06:13.920Z,1.25
2023-01-25T18:08:44.730Z,1.46
2023-01-25T18:11:15.273Z,1.68
2023-01-25T18:13:44.204Z,1.49
2023-01-25T18:16:12.397Z,1.21
2023-01-25T18:18:41.672Z,1.32
2023-01-25T18:21:12.070Z,1.28
2023-01-25T18:23:40.821Z,1.49
2023-01-25T18:26:17.044Z,1.54
2023-01-25T18:28:45.213Z,1.23
2023-01-25T18:31:15.624Z,1.33
2023-01-25T18:33:44.049Z,1.15
2023-01-25T18:36:14.626Z,1.20
2023-01-25T18:38:42.694Z,1.19
2023-01-25T18:41:10.911Z,1.26
2023-01-25T18:43:39.130Z,1.17
2023-01-25T18:46:07.513Z,1.17
2023-01-25T18:48:36.062Z,1.09
2023-01-25T18:51:06.992Z,1.27
2023-01-25T18:53:37.070Z,1.34
2023-01-25T18:56:07.060Z,1.22
2023-01-25T18:58:35.852Z,1.68
2023-01-25T19:01:05.192Z,1.79
2023-01-25T19:03:33.378Z,1.42
2023-01-25T19:06:01.437Z,1.70
2023-01-25T19:08:32.058Z,1.65
2023-01-25T19:11:02.451Z,1.67
2023-01-25T19:13:32.419Z,1.36
2023-01-25T19:16:01.530Z,1.46
2023-01-25T19:18:30.486Z,1.55
2023-01-25T19:20:58.833Z,1.30
2023-01-25T19:23:26.915Z,1.32
2023-01-25T19:25:55.397Z,1.36
2023-01-25T19:28:27.745Z,1.33
2023-01-25T19:30:55.898Z,1.19
2023-01-25T19:33:24.061Z,1.21
2023-01-25T19:35:58.881Z,1.14
2023-01-25T19:38:28.904Z,1.53
2023-01-25T19:40:56.921Z,1.37
2023-01-25T19:43:25.497Z,1.58
2023-01-25T19:45:54.891Z,1.24
2023-01-25T19:48:32.248Z,1.36
2023-01-25T19:51:06.880Z,1.25
2023-01-25T19:53:34.946Z,1.20
2023-01-25T19:56:03.827Z,1.31
2023-01-25T19:58:31.900Z,1.31
2023-01-25T20:01:07.216Z,1.69
2023-01-25T20:03:35.905Z,1.31
2023-01-25T20:06:05.077Z,1.36
2023-01-25T20:08:36.258Z,1.29
2023-01-25T20:11:05.407Z,1.05
2023-01-25T20:13:33.577Z,1.16
2023-01-25T20:16:01.773Z,1.13
2023-01-25T20:18:32.575Z,1.46
2023-01-25T20:21:01.418Z,1.50
2023-01-25T20:23:32.283Z,1.68
2023-01-25T20:26:01.130Z,1.63
2023-01-25T20:28:29.666Z,1.72
2023-01-25T20:30:59.361Z,1.71
2023-01-25T20:33:27.518Z,1.70
2023-01-25T20:35:59.230Z,1.70
2023-01-25T20:38:29.726Z,1.30
2023-01-25T20:41:00.957Z,1.64
2023-01-25T20:43:31.464Z,1.62
2023-01-25T20:45:59.887Z,1.45
2023-01-25T20:48:28.171Z,1.52
2023-01-25T20:51:02.706Z,1.35
2023-01-25T20:53:31.035Z,1.51
2023-01-25T20:55:59.925Z,1.48
2023-01-25T20:58:28.555Z,1.53
2023-01-25T21:00:57.016Z,1.71
2023-01-25T21:03:25.611Z,1.28
2023-01-25T21:05:54.308Z,1.17
2023-01-25T21:08:24.179Z,1.32
2023-01-25T21:10:53.218Z,1.32
2023-01-25T21:13:21.858Z,1.44
2023-01-25T21:15:59.843Z,1.54
2023-01-25T21:18:28.568Z,1.52
2023-01-25T21:21:03.365Z,1.35
2023-01-25T21:23:34.116Z,0.88
2023-01-25T21:26:02.641Z,1.18
2023-01-25T21:28:30.731Z,1.28
2023-01-25T21:30:58.891Z,1.67
2023-01-25T21:33:28.763Z,1.30
2023-01-25T21:36:00.928Z,1.64
2023-01-25T21:38:28.987Z,1.54
2023-01-25T21:41:02.217Z,1.48
2023-01-25T21:43:30.476Z,1.57
2023-01-25T21:46:25.225Z,1.17
2023-01-25T21:49:11.098Z,1.15
2023-01-25T21:51:47.077Z,1.18
2023-01-25T21:54:15.768Z,1.04
2023-01-25T21:56:45.770Z,0.91
2023-01-25T22:02:38.287Z,1.00
2023-01-25T22:05:06.590Z,1.01
2023-01-25T22:07:34.638Z,1.09
2023-01-25T22:10:02.627Z,1.57
2023-01-25T22:12:30.647Z,1.90
2023-01-25T22:14:58.699Z,1.52
2023-01-25T22:17:26.753Z,1.82
2023-01-25T22:19:56.214Z,2.01
2023-01-25T22:22:24.335Z,2.05
2023-01-25T22:24:54.494Z,1.24
2023-01-25T22:27:37.872Z,1.34
2023-01-25T22:30:06.539Z,1.90
2023-01-25T22:32:34.645Z,1.58
2023-01-25T22:35:04.067Z,1.56
2023-01-25T22:37:32.067Z,1.38
2023-01-25T22:40:00.101Z,1.82
2023-01-25T22:42:28.090Z,1.36
2023-01-25T22:44:56.179Z,1.48
2023-01-25T22:47:24.291Z,1.44
2023-01-25T22:49:52.329Z,1.54
2023-01-25T22:52:22.194Z,1.66
2023-01-25T22:54:50.894Z,1.61
2023-01-25T22:57:18.955Z,1.31
2023-01-25T22:59:47.041Z,1.26
2023-01-25T23:02:15.030Z,0.84
2023-01-25T23:04:45.255Z,0.68
2023-01-25T23:07:18.518Z,0.52
2023-01-25T23:09:51.461Z,0.53
2023-01-25T23:12:19.745Z,0.52
2023-01-25T23:14:54.279Z,0.48
2023-01-25T23:17:41.020Z,0.54
2023-01-25T23:20:10.771Z,0.65
2023-01-25T23:22:39.042Z,0.40
2023-01-25T23:25:09.974Z,0.41
2023-01-25T23:27:38.042Z,0.87
2023-01-25T23:30:07.216Z,0.42
2023-01-25T23:32:35.311Z,0.89
2023-01-25T23:35:03.385Z,0.56
2023-01-25T23:37:31.502Z,0.90
2023-01-25T23:40:01.950Z,0.55
2023-01-25T23:42:31.347Z,0.74
2023-01-25T23:45:01.745Z,1.67
2023-01-25T23:47:31.118Z,0.52
2023-01-25T23:49:59.321Z,0.49
2023-01-25T23:52:27.438Z,0.52
2023-01-25T23:54:55.540Z,0.45
2023-01-25T23:57:23.609Z,0.34
2023-01-25T23:59:52.961Z,0.88
